Time;durP1;ratioP1;P1;durP2;ratioP2;P2;SDS_P1;SDS_P2;PMS_P1;PMS_P2;Temp;Humidity;BMP_temperature;BMP_pressure;BME280_temperature;BME280_humidity;BME280_pressure;Samples;Min_cycle;Max_cycle;Signal;HPM_P1;HPM_P2
2023/01/16 00:01:45;;;;;;;6.85;1.63;;;;;;;;;;5102498;28;20283;-78
2023/01/16 00:04:11;;;;;;;5.55;1.40;;;;;;;;;;5101549;28;20346;-77
2023/01/16 00:06:36;;;;;;;4.80;1.35;;;;;;;;;;5102584;28;20215;-77
2023/01/16 00:09:03;;;;;;;5.18;1.65;;;;;;;;;;5102798;28;20024;-76
2023/01/16 00:11:29;;;;;;;6.88;1.40;;;;;;;;;;5101981;28;20016;-78
2023/01/16 00:13:55;;;;;;;6.63;1.20;;;;;;;;;;5102072;28;20277;-77
2023/01/16 00:16:21;;;;;;;7.05;1.73;;;;;;;;;;5102171;28;20328;-78
2023/01/16 00:18:46;;;;;;;6.35;1.92;;;;;;;;;;5102406;28;20032;-78
2023/01/16 00:21:12;;;;;;;9.48;2.42;;;;;;;;;;5101992;28;20040;-78
2023/01/16 00:23:37;;;;;;;6.53;2.30;;;;;;;;;;5102549;28;20053;-77
2023/01/16 00:26:09;;;;;;;9.85;2.60;;;;;;;;;;5084013;28;20441;-77
2023/01/16 00:28:37;;;;;;;7.70;2.42;;;;;;;;;;5102177;28;20028;-77
2023/01/16 00:31:06;;;;;;;9.00;2.78;;;;;;;;;;5101908;28;20024;-77
2023/01/16 00:33:33;;;;;;;7.32;2.40;;;;;;;;;;5102200;28;20026;-76
2023/01/16 00:35:59;;;;;;;8.05;2.72;;;;;;;;;;5102088;28;20042;-77
2023/01/16 00:38:24;;;;;;;10.38;2.22;;;;;;;;;;5102258;28;20036;-76
2023/01/16 00:40:50;;;;;;;9.43;2.50;;;;;;;;;;5101917;28;20038;-79
2023/01/16 00:43:15;;;;;;;9.40;2.10;;;;;;;;;;5102269;28;20319;-79
2023/01/16 00:45:40;;;;;;;9.70;2.33;;;;;;;;;;5101435;28;20024;-77
2023/01/16 00:48:06;;;;;;;8.15;2.08;;;;;;;;;;5101745;28;20040;-79
2023/01/16 00:50:32;;;;;;;6.28;1.77;;;;;;;;;;5101711;28;20052;-78
2023/01/16 00:52:57;;;;;;;5.95;1.92;;;;;;;;;;5101113;28;20311;-77
2023/01/16 00:55:23;;;;;;;5.78;1.98;;;;;;;;;;5101420;28;20028;-77
2023/01/16 00:57:49;;;;;;;9.57;1.85;;;;;;;;;;5101949;28;20028;-77
2023/01/16 01:00:17;;;;;;;7.28;2.00;;;;;;;;;;5101833;28;20046;-77
2023/01/16 01:02:43;;;;;;;9.20;2.13;;;;;;;;;;5101882;28;20024;-76
2023/01/16 01:05:08;;;;;;;5.32;2.08;;;;;;;;;;5101905;28;20012;-75
2023/01/16 01:07:34;;;;;;;6.40;1.90;;;;;;;;;;5101591;28;20024;-76
2023/01/16 01:09:59;;;;;;;5.57;2.10;;;;;;;;;;5101900;28;20039;-78
2023/01/16 01:12:25;;;;;;;8.50;2.42;;;;;;;;;;5101697;28;20220;-76
2023/01/16 01:14:50;;;;;;;7.57;1.92;;;;;;;;;;5101847;28;20043;-77
2023/01/16 01:17:15;;;;;;;6.32;2.00;;;;;;;;;;5101274;28;20304;-77
2023/01/16 01:19:41;;;;;;;5.30;1.85;;;;;;;;;;5101705;28;20035;-77
2023/01/16 01:22:06;;;;;;;6.00;1.88;;;;;;;;;;5100985;28;20036;-77
2023/01/16 01:24:32;;;;;;;8.82;1.75;;;;;;;;;;5105618;28;20285;-78
2023/01/16 01:26:57;;;;;;;5.10;1.30;;;;;;;;;;5105153;28;20320;-77
2023/01/16 01:29:22;;;;;;;5.07;1.40;;;;;;;;;;5105678;28;20016;-77
2023/01/16 01:31:48;;;;;;;7.65;1.92;;;;;;;;;;5105406;28;20020;-78
2023/01/16 01:34:13;;;;;;;5.88;1.65;;;;;;;;;;5105451;28;20024;-76
2023/01/16 01:36:38;;;;;;;6.75;1.70;;;;;;;;;;5104658;28;20072;-77
2023/01/16 01:39:04;;;;;;;4.28;1.90;;;;;;;;;;5105030;28;20032;-78
2023/01/16 01:41:29;;;;;;;7.10;1.73;;;;;;;;;;5105004;28;20032;-76
2023/01/16 01:43:56;;;;;;;4.80;1.52;;;;;;;;;;5105412;28;20032;-79
2023/01/16 01:46:43;;;;;;;5.68;1.50;;;;;;;;;;5105177;28;20027;-78
2023/01/16 01:49:23;;;;;;;5.47;1.30;;;;;;;;;;5105447;28;20089;-77
2023/01/16 01:51:51;;;;;;;7.20;1.30;;;;;;;;;;5105312;28;20031;-78
2023/01/16 01:54:21;;;;;;;5.68;1.27;;;;;;;;;;5105464;28;20031;-79
2023/01/16 01:56:59;;;;;;;4.72;1.23;;;;;;;;;;5104711;28;20494;-78
2023/01/16 01:59:34;;;;;;;5.97;1.27;;;;;;;;;;5105262;28;20103;-78
2023/01/16 02:02:04;;;;;;;4.78;1.08;;;;;;;;;;5104742;28;20221;-77
2023/01/16 02:04:34;;;;;;;3.60;1.05;;;;;;;;;;5104595;28;20024;-77
2023/01/16 02:07:04;;;;;;;6.67;1.30;;;;;;;;;;5104848;28;20043;-77
2023/01/16 02:09:29;;;;;;;6.80;1.50;;;;;;;;;;5105252;28;20028;-77
2023/01/16 02:12:00;;;;;;;6.10;1.10;;;;;;;;;;5104808;28;20028;-78
2023/01/16 02:14:28;;;;;;;4.50;1.30;;;;;;;;;;5104596;28;20342;-78
2023/01/16 02:20:06;;;;;;;5.32;1.73;;;;;;;;;;5104755;28;20334;-77
2023/01/16 02:22:34;;;;;;;4.18;1.40;;;;;;;;;;5104343;28;20028;-77
2023/01/16 02:25:21;;;;;;;4.38;1.20;;;;;;;;;;5104806;28;20208;-76
2023/01/16 02:28:23;;;;;;;4.18;1.13;;;;;;;;;;5085927;28;20032;-78
2023/01/16 02:31:22;;;;;;;3.75;1.10;;;;;;;;;;5104399;28;20092;-78
2023/01/16 02:33:50;;;;;;;3.47;1.00;;;;;;;;;;5103655;28;20024;-78
2023/01/16 02:36:46;;;;;;;3.63;1.23;;;;;;;;;;5104374;28;20042;-78
2023/01/16 02:39:41;;;;;;;6.32;1.23;;;;;;;;;;5104449;28;20073;-78
2023/01/16 02:42:18;;;;;;;4.85;1.27;;;;;;;;;;5103573;28;20035;-77
2023/01/16 02:44:59;;;;;;;3.47;1.10;;;;;;;;;;5103900;28;20059;-79
2023/01/16 02:47:36;;;;;;;4.57;1.38;;;;;;;;;;5103651;28;20056;-78
2023/01/16 02:50:14;;;;;;;3.95;1.35;;;;;;;;;;5104171;28;20095;-75
2023/01/16 02:52:53;;;;;;;2.97;1.35;;;;;;;;;;5103706;28;20028;-77
2023/01/16 02:55:28;;;;;;;4.55;1.50;;;;;;;;;;5102568;28;20032;-77
2023/01/16 02:57:59;;;;;;;5.00;1.65;;;;;;;;;;5103815;28;20020;-78
2023/01/16 03:00:25;;;;;;;3.22;1.20;;;;;;;;;;5103910;28;20051;-78
2023/01/16 03:02:50;;;;;;;3.10;1.40;;;;;;;;;;5085572;28;20107;-76
2023/01/16 03:05:16;;;;;;;5.15;1.30;;;;;;;;;;5103893;28;20031;-79
2023/01/16 03:07:53;;;;;;;4.20;1.10;;;;;;;;;;5103648;28;20137;-77
2023/01/16 03:10:22;;;;;;;5.57;1.85;;;;;;;;;;5103940;28;20095;-77
2023/01/16 03:13:23;;;;;;;3.47;1.30;;;;;;;;;;5103655;28;20025;-78
2023/01/16 03:15:51;;;;;;;3.08;1.35;;;;;;;;;;5102745;28;20036;-77
2023/01/16 03:19:03;;;;;;;3.30;1.23;;;;;;;;;;5102884;28;20036;-78
2023/01/16 03:21:39;;;;;;;2.42;1.10;;;;;;;;;;5103624;28;20138;-77
2023/01/16 03:24:28;;;;;;;5.75;1.30;;;;;;;;;;5103421;28;20346;-76
2023/01/16 03:27:24;;;;;;;5.15;1.23;;;;;;;;;;5102795;28;20028;-78
2023/01/16 03:29:59;;;;;;;2.80;1.08;;;;;;;;;;5102365;28;20028;-78
2023/01/16 03:32:36;;;;;;;5.38;1.20;;;;;;;;;;5102715;28;20020;-78
2023/01/16 03:35:19;;;;;;;4.75;1.20;;;;;;;;;;5103321;28;20054;-77
2023/01/16 03:37:50;;;;;;;5.13;1.00;;;;;;;;;;5102356;28;20043;-77
2023/01/16 03:40:22;;;;;;;3.65;1.17;;;;;;;;;;5102031;28;20081;-78
2023/01/16 03:43:02;;;;;;;4.65;1.20;;;;;;;;;;5102347;28;20335;-77
2023/01/16 03:45:44;;;;;;;4.40;1.15;;;;;;;;;;5102273;28;20048;-77
2023/01/16 03:48:13;;;;;;;4.00;1.02;;;;;;;;;;5102555;28;20091;-78
2023/01/16 03:50:44;;;;;;;2.38;0.80;;;;;;;;;;5102982;28;20082;-77
2023/01/16 03:53:11;;;;;;;1.35;0.70;;;;;;;;;;5102964;28;20031;-75
2023/01/16 03:55:49;;;;;;;2.58;0.63;;;;;;;;;;5103069;28;20051;-78
2023/01/16 03:58:23;;;;;;;1.55;0.70;;;;;;;;;;5102736;28;20028;-76
2023/01/16 04:01:04;;;;;;;1.52;0.60;;;;;;;;;;5102648;28;20047;-76
2023/01/16 04:03:35;;;;;;;;;;;;;;;;;;5084968;28;20024;-75
2023/01/16 04:06:09;;;;;;;1.00;0.50;;;;;;;;;;5102791;28;19949;-78
2023/01/16 04:08:37;;;;;;;2.05;0.70;;;;;;;;;;5102322;28;20220;-78
2023/01/16 04:11:04;;;;;;;2.30;0.75;;;;;;;;;;5102732;28;20024;-77
2023/01/16 04:13:35;;;;;;;0.80;0.45;;;;;;;;;;5102578;28;20030;-77
2023/01/16 04:16:02;;;;;;;2.72;0.57;;;;;;;;;;5102630;28;20205;-77
2023/01/16 04:18:33;;;;;;;4.00;0.73;;;;;;;;;;5101750;28;20061;-77
2023/01/16 04:20:59;;;;;;;5.28;0.82;;;;;;;;;;5102512;28;20469;-75
2023/01/16 04:23:24;;;;;;;1.88;0.75;;;;;;;;;;5102117;28;20035;-77
2023/01/16 04:25:50;;;;;;;2.25;0.70;;;;;;;;;;5102314;28;20369;-77
2023/01/16 04:28:16;;;;;;;1.88;0.60;;;;;;;;;;5102293;28;20036;-74
2023/01/16 04:30:41;;;;;;;0.93;0.50;;;;;;;;;;5101920;28;20224;-77
2023/01/16 04:33:06;;;;;;;2.08;0.70;;;;;;;;;;5102122;28;20070;-76
2023/01/16 04:35:32;;;;;;;1.95;0.70;;;;;;;;;;5083992;28;20130;-76
2023/01/16 04:37:57;;;;;;;5.03;0.93;;;;;;;;;;5102079;28;20035;-78
2023/01/16 04:40:23;;;;;;;2.97;0.90;;;;;;;;;;5101993;28;20027;-76
2023/01/16 04:42:48;;;;;;;3.47;1.13;;;;;;;;;;5102161;28;20099;-76
2023/01/16 04:45:14;;;;;;;3.22;1.15;;;;;;;;;;5101743;28;20342;-76
2023/01/16 04:47:39;;;;;;;3.10;1.00;;;;;;;;;;5101800;28;20057;-77
2023/01/16 04:50:05;;;;;;;4.97;1.20;;;;;;;;;;5100897;28;20031;-77
2023/01/16 04:52:31;;;;;;;4.47;1.00;;;;;;;;;;5101924;28;20036;-78
2023/01/16 04:54:56;;;;;;;4.20;1.00;;;;;;;;;;5101108;28;20043;-76
2023/01/16 04:57:22;;;;;;;5.00;1.30;;;;;;;;;;5100449;28;20035;-76
2023/01/16 04:59:47;;;;;;;4.25;1.02;;;;;;;;;;5100199;28;20028;-76
2023/01/16 05:02:12;;;;;;;2.50;0.90;;;;;;;;;;5101267;28;20150;-77
2023/01/16 05:04:38;;;;;;;3.88;0.88;;;;;;;;;;5101208;28;20031;-78
2023/01/16 05:07:03;;;;;;;4.50;0.90;;;;;;;;;;5100720;28;20028;-79
2023/01/16 05:09:29;;;;;;;1.73;0.70;;;;;;;;;;5101536;28;20028;-77
2023/01/16 05:11:54;;;;;;;3.95;1.13;;;;;;;;;;5101517;28;20032;-76
2023/01/16 05:14:19;;;;;;;3.15;0.80;;;;;;;;;;5101479;28;20031;-76
2023/01/16 05:16:45;;;;;;;2.15;0.60;;;;;;;;;;5083678;28;20046;-76
2023/01/16 05:19:11;;;;;;;2.30;0.75;;;;;;;;;;5101032;28;20050;-76
2023/01/16 05:21:36;;;;;;;2.90;0.88;;;;;;;;;;5101554;28;20320;-76
2023/01/16 05:24:02;;;;;;;2.38;0.70;;;;;;;;;;5101389;28;20067;-77
2023/01/16 05:26:28;;;;;;;1.45;0.57;;;;;;;;;;5101878;28;20235;-77
2023/01/16 05:28:53;;;;;;;2.05;0.57;;;;;;;;;;5101172;28;20247;-76
2023/01/16 05:31:19;;;;;;;1.83;0.60;;;;;;;;;;5101223;28;20056;-76
2023/01/16 05:33:44;;;;;;;3.72;0.50;;;;;;;;;;5101366;28;20093;-78
2023/01/16 05:36:10;;;;;;;1.88;0.68;;;;;;;;;;5101528;28;20219;-76
2023/01/16 05:38:35;;;;;;;5.57;1.27;;;;;;;;;;5101605;28;20012;-77
2023/01/16 05:41:01;;;;;;;7.05;1.65;;;;;;;;;;5101160;28;20020;-77
2023/01/16 05:43:26;;;;;;;5.97;1.17;;;;;;;;;;5101506;28;20204;-76
2023/01/16 05:45:52;;;;;;;8.80;1.50;;;;;;;;;;5083433;28;20346;-78
2023/01/16 05:48:17;;;;;;;8.90;2.08;;;;;;;;;;5101167;28;20091;-77
2023/01/16 05:50:42;;;;;;;2.97;0.70;;;;;;;;;;5101076;28;20032;-77
2023/01/16 05:53:08;;;;;;;1.73;0.60;;;;;;;;;;5100783;28;20035;-76
2023/01/16 05:55:43;;;;;;;2.53;0.60;;;;;;;;;;5100461;28;20109;-76
2023/01/16 05:58:12;;;;;;;2.70;0.82;;;;;;;;;;5100614;28;20077;-77
2023/01/16 06:00:38;;;;;;;2.50;0.50;;;;;;;;;;5099464;28;20039;-76
2023/01/16 06:03:04;;;;;;;0.93;0.50;;;;;;;;;;5098500;28;20114;-76
2023/01/16 06:05:30;;;;;;;1.10;0.38;;;;;;;;;;5101083;28;20028;-77
2023/01/16 06:07:56;;;;;;;1.23;0.40;;;;;;;;;;5101742;28;20216;-77
2023/01/16 06:10:21;;;;;;;1.10;0.30;;;;;;;;;;5086774;28;20216;-76
2023/01/16 06:12:47;;;;;;;0.75;0.30;;;;;;;;;;5086781;28;20020;-77
2023/01/16 06:15:12;;;;;;;1.17;0.47;;;;;;;;;;5104857;28;20031;-77
2023/01/16 06:17:38;;;;;;;0.85;0.40;;;;;;;;;;5104763;28;20117;-77
2023/01/16 06:20:03;;;;;;;0.75;0.50;;;;;;;;;;5104454;28;20216;-77
2023/01/16 06:22:29;;;;;;;2.03;0.40;;;;;;;;;;5104456;28;20078;-77
2023/01/16 06:24:54;;;;;;;1.88;0.57;;;;;;;;;;5104353;28;20024;-75
2023/01/16 06:27:20;;;;;;;0.90;0.40;;;;;;;;;;5104333;28;20028;-75
2023/01/16 06:29:45;;;;;;;1.65;0.50;;;;;;;;;;5104413;28;20035;-76
2023/01/16 06:32:10;;;;;;;0.25;0.25;;;;;;;;;;5103753;28;20032;-77
2023/01/16 06:34:36;;;;;;;2.08;0.50;;;;;;;;;;5104363;28;20027;-76
2023/01/16 06:37:01;;;;;;;0.40;0.30;;;;;;;;;;5104575;28;20044;-76
2023/01/16 06:39:27;;;;;;;1.17;0.60;;;;;;;;;;5104245;28;20040;-77
2023/01/16 06:41:52;;;;;;;1.05;0.50;;;;;;;;;;5086210;28;20031;-78
2023/01/16 06:44:17;;;;;;;2.33;0.50;;;;;;;;;;5086224;28;20028;-76
2023/01/16 06:46:43;;;;;;;1.35;0.43;;;;;;;;;;5104249;28;20028;-76
2023/01/16 06:49:10;;;;;;;0.43;0.30;;;;;;;;;;5104052;28;20028;-76
2023/01/16 06:51:35;;;;;;;1.17;0.50;;;;;;;;;;5103830;28;20070;-76
2023/01/16 06:54:02;;;;;;;0.57;0.40;;;;;;;;;;5104085;28;20269;-75
2023/01/16 06:56:29;;;;;;;0.77;0.43;;;;;;;;;;5104012;28;20016;-76
2023/01/16 06:58:54;;;;;;;3.10;0.40;;;;;;;;;;5080396;28;20429;-77
2023/01/16 07:01:20;;;;;;;0.90;0.32;;;;;;;;;;5101456;28;20346;-77
2023/01/16 07:03:45;;;;;;;0.70;0.30;;;;;;;;;;5099445;28;20020;-76
2023/01/16 07:06:12;;;;;;;1.25;0.55;;;;;;;;;;5102442;28;20316;-76
2023/01/16 07:08:38;;;;;;;4.10;1.60;;;;;;;;;;5098764;28;20081;-76
2023/01/16 07:11:03;;;;;;;1.88;0.60;;;;;;;;;;5103309;28;20247;-77
2023/01/16 07:13:29;;;;;;;2.53;0.88;;;;;;;;;;5101400;28;20016;-77
2023/01/16 07:24:16;;;;;;;1.27;0.63;;;;;;;;;;5098887;28;20403;-76
2023/01/16 07:26:44;;;;;;;1.02;0.50;;;;;;;;;;5101791;28;20031;-78
2023/01/16 07:29:10;;;;;;;3.60;0.30;;;;;;;;;;5102510;28;20043;-78
2023/01/16 07:31:36;;;;;;;0.50;0.38;;;;;;;;;;5099345;28;20028;-78
2023/01/16 07:34:01;;;;;;;6.07;0.57;;;;;;;;;;5099281;28;20099;-77
2023/01/16 07:36:27;;;;;;;0.95;0.52;;;;;;;;;;5102994;28;20028;-77
2023/01/16 07:38:52;;;;;;;1.92;0.60;;;;;;;;;;5101622;28;20020;-77
2023/01/16 07:41:18;;;;;;;1.90;0.50;;;;;;;;;;5101902;28;20036;-78
2023/01/16 07:43:43;;;;;;;1.42;0.50;;;;;;;;;;5100513;28;20039;-78
2023/01/16 07:46:08;;;;;;;0.82;0.40;;;;;;;;;;5101382;28;20051;-78
2023/01/16 07:48:34;;;;;;;0.88;0.50;;;;;;;;;;5100281;28;20200;-76
2023/01/16 07:50:59;;;;;;;1.13;0.50;;;;;;;;;;5102906;28;20028;-76
2023/01/16 07:53:27;;;;;;;0.63;0.40;;;;;;;;;;5098908;28;20063;-77
2023/01/16 07:55:57;;;;;;;1.60;0.43;;;;;;;;;;5095709;28;20201;-77
2023/01/16 07:58:23;;;;;;;1.63;0.50;;;;;;;;;;5096524;28;20036;-78
2023/01/16 08:00:52;;;;;;;1.33;0.60;;;;;;;;;;5101917;28;20048;-79
2023/01/16 08:03:18;;;;;;;1.40;0.40;;;;;;;;;;5098138;28;20036;-78
2023/01/16 08:05:43;;;;;;;1.35;0.30;;;;;;;;;;5099890;28;20145;-77
2023/01/16 08:08:10;;;;;;;0.28;0.20;;;;;;;;;;5102519;28;20020;-78
2023/01/16 08:10:36;;;;;;;1.17;0.40;;;;;;;;;;5098600;28;20388;-78
2023/01/16 08:13:01;;;;;;;0.32;0.22;;;;;;;;;;5101509;28;20032;-78
2023/01/16 08:15:27;;;;;;;1.23;0.40;;;;;;;;;;5101239;28;20039;-78
2023/01/16 08:17:53;;;;;;;0.20;0.20;;;;;;;;;;5102130;28;20031;-80
2023/01/16 08:20:18;;;;;;;2.10;0.30;;;;;;;;;;5083362;28;20024;-77
2023/01/16 08:22:45;;;;;;;1.60;0.50;;;;;;;;;;5097408;28;20185;-79
2023/01/16 08:25:11;;;;;;;1.73;0.50;;;;;;;;;;5094499;28;20094;-80
2023/01/16 08:27:37;;;;;;;1.50;0.50;;;;;;;;;;5092896;28;20035;-79
2023/01/16 08:30:05;;;;;;;0.82;0.40;;;;;;;;;;5099319;28;20028;-78
2023/01/16 08:32:30;;;;;;;1.10;0.45;;;;;;;;;;5101909;28;20024;-75
2023/01/16 08:34:55;;;;;;;2.28;0.50;;;;;;;;;;5100123;28;20047;-80
2023/01/16 08:37:21;;;;;;;0.50;0.30;;;;;;;;;;5102361;28;20061;-76
2023/01/16 08:39:46;;;;;;;2.10;0.30;;;;;;;;;;5100285;28;20062;-78
2023/01/16 08:53:09;;;;;;;1.73;0.70;;;;;;;;;;5102176;28;20050;-78
2023/01/16 08:55:35;;;;;;;1.48;0.50;;;;;;;;;;5102013;28;20028;-75
2023/01/16 08:58:00;;;;;;;2.83;0.50;;;;;;;;;;5083842;28;20031;-76
2023/01/16 09:00:26;;;;;;;0.98;0.40;;;;;;;;;;5101756;28;20324;-75
2023/01/16 09:02:53;;;;;;;0.30;0.30;;;;;;;;;;5101796;28;20026;-73
2023/01/16 09:05:19;;;;;;;1.02;0.47;;;;;;;;;;5101809;28;20135;-76
2023/01/16 09:07:44;;;;;;;2.15;0.50;;;;;;;;;;5102197;28;20239;-78
2023/01/16 09:10:11;;;;;;;2.58;0.50;;;;;;;;;;5101832;28;20032;-75
2023/01/16 09:15:20;;;;;;;0.40;0.30;;;;;;;;;;5101681;28;20223;-74
2023/01/16 09:17:45;;;;;;;0.75;0.32;;;;;;;;;;5101448;28;20363;-77
2023/01/16 09:20:11;;;;;;;1.38;0.43;;;;;;;;;;5101009;28;20028;-76
2023/01/16 09:22:36;;;;;;;0.82;0.30;;;;;;;;;;5100337;28;20047;-73
2023/01/16 09:25:02;;;;;;;0.43;0.20;;;;;;;;;;5100182;28;20031;-72
2023/01/16 09:27:27;;;;;;;0.65;0.30;;;;;;;;;;5101112;28;20035;-76
2023/01/16 09:29:53;;;;;;;0.30;0.30;;;;;;;;;;5100056;28;20024;-75
2023/01/16 09:32:19;;;;;;;0.68;0.38;;;;;;;;;;5082792;28;20028;-75
2023/01/16 09:34:45;;;;;;;0.57;0.43;;;;;;;;;;5101530;28;20048;-74
2023/01/16 09:37:11;;;;;;;1.27;0.30;;;;;;;;;;5101570;28;20046;-74
2023/01/16 09:39:36;;;;;;;1.55;0.63;;;;;;;;;;5101346;28;20061;-76
2023/01/16 09:44:50;;;;;;;0.68;0.40;;;;;;;;;;5104952;28;20035;-76
2023/01/16 09:47:17;;;;;;;0.80;0.40;;;;;;;;;;5100909;28;20032;-76
2023/01/16 09:49:51;;;;;;;1.92;0.40;;;;;;;;;;5093910;28;20036;-76
2023/01/16 09:58:36;;;;;;;0.47;0.22;;;;;;;;;;5011341;28;20083;-76
2023/01/16 10:01:48;;;;;;;2.85;0.60;;;;;;;;;;5056158;28;20040;-76
2023/01/16 10:04:18;;;;;;;2.47;0.70;;;;;;;;;;5090441;28;20036;-76
2023/01/16 10:06:47;;;;;;;4.95;0.68;;;;;;;;;;5093935;28;20028;-75
2023/01/16 10:09:18;;;;;;;1.20;0.50;;;;;;;;;;5075355;28;20035;-76
2023/01/16 10:11:57;;;;;;;1.63;0.50;;;;;;;;;;5093710;28;20058;-76
2023/01/16 10:14:31;;;;;;;3.65;0.68;;;;;;;;;;5093604;28;20483;-76
2023/01/16 10:17:19;;;;;;;2.38;0.60;;;;;;;;;;5093568;28;20024;-76
2023/01/16 10:20:02;;;;;;;2.30;0.50;;;;;;;;;;5093186;28;20526;-76
2023/01/16 10:22:47;;;;;;;4.80;1.05;;;;;;;;;;5097953;28;20031;-75
2023/01/16 10:25:35;;;;;;;5.22;0.90;;;;;;;;;;5096335;28;20370;-76
2023/01/16 10:28:25;;;;;;;4.20;0.73;;;;;;;;;;5055388;28;20044;-74
2023/01/16 10:30:55;;;;;;;1.77;0.60;;;;;;;;;;5092977;28;20081;-74
2023/01/16 10:33:41;;;;;;;4.53;0.90;;;;;;;;;;5092868;28;20028;-74
2023/01/16 10:36:11;;;;;;;3.10;0.70;;;;;;;;;;5091833;28;20024;-76
2023/01/16 10:38:51;;;;;;;3.53;0.80;;;;;;;;;;5092911;28;20197;-75
2023/01/16 10:49:57;;;;;;;4.05;0.85;;;;;;;;;;5092939;28;20031;-74
2023/01/16 10:52:24;;;;;;;3.95;0.88;;;;;;;;;;5074248;28;20032;-74
2023/01/16 10:54:51;;;;;;;5.10;0.82;;;;;;;;;;5092634;28;20111;-74
2023/01/16 10:57:18;;;;;;;5.00;0.85;;;;;;;;;;5097922;28;20034;-75
2023/01/16 10:59:50;;;;;;;3.97;0.93;;;;;;;;;;5112674;28;20019;-75
2023/01/16 11:02:33;;;;;;;3.45;0.85;;;;;;;;;;5044846;28;20654;-74
2023/01/16 11:04:59;;;;;;;6.03;0.68;;;;;;;;;;5071725;28;20040;-76
2023/01/16 11:07:29;;;;;;;4.15;1.02;;;;;;;;;;5072631;28;20376;-76
2023/01/16 11:09:54;;;;;;;5.50;1.97;;;;;;;;;;5075748;28;20496;-75
2023/01/16 11:18:28;;;;;;;3.22;1.02;;;;;;;;;;5080020;28;20058;-76
2023/01/16 11:20:54;;;;;;;4.10;0.90;;;;;;;;;;5071794;28;20108;-75
2023/01/16 11:23:22;;;;;;;3.70;0.88;;;;;;;;;;5071703;28;20444;-75
2023/01/16 11:25:50;;;;;;;6.95;0.90;;;;;;;;;;5071932;28;20029;-75
2023/01/16 11:28:28;;;;;;;5.18;0.90;;;;;;;;;;5071838;28;20036;-74
2023/01/16 11:30:59;;;;;;;2.88;0.80;;;;;;;;;;5071946;28;20052;-75
2023/01/16 11:33:27;;;;;;;;;;;;;;;;;;5059631;28;20071;-74
2023/01/16 11:35:58;;;;;;;4.30;0.98;;;;;;;;;;5071834;28;19955;-75
2023/01/16 11:38:25;;;;;;;;;;;;;;;;;;5071757;28;20538;-74
2023/01/16 11:40:54;;;;;;;7.50;1.00;;;;;;;;;;5070582;28;20280;-75
2023/01/16 11:46:25;;;;;;;8.07;1.20;;;;;;;;;;5075027;28;20389;-77
2023/01/16 11:48:59;;;;;;;4.72;1.08;;;;;;;;;;5070817;28;20029;-77
2023/01/16 11:51:28;;;;;;;8.15;1.20;;;;;;;;;;5070529;28;20024;-73
2023/01/16 11:53:55;;;;;;;7.55;1.30;;;;;;;;;;5071326;28;20728;-74
2023/01/16 11:56:49;;;;;;;7.80;1.50;;;;;;;;;;5071343;28;20108;-74
2023/01/16 11:59:39;;;;;;;7.55;1.40;;;;;;;;;;5070660;28;20039;-76
2023/01/16 12:02:24;;;;;;;3.97;1.45;;;;;;;;;;5070109;28;20059;-75
2023/01/16 12:08:21;;;;;;;7.20;1.33;;;;;;;;;;5071176;28;20132;-76
2023/01/16 12:11:12;;;;;;;5.70;1.13;;;;;;;;;;5041611;28;20620;-75
2023/01/16 12:17:08;;;;;;;6.78;0.95;;;;;;;;;;5053322;28;20487;-75
2023/01/16 12:19:45;;;;;;;5.95;1.30;;;;;;;;;;5057721;28;20044;-75
2023/01/16 12:22:29;;;;;;;6.70;1.13;;;;;;;;;;5053150;28;20052;-75
2023/01/16 12:25:22;;;;;;;3.28;0.90;;;;;;;;;;5052348;28;20028;-77
2023/01/16 12:28:02;;;;;;;6.97;1.10;;;;;;;;;;5051072;28;20394;-74
2023/01/16 12:30:58;;;;;;;6.65;1.60;;;;;;;;;;5050530;28;20025;-74
2023/01/16 12:33:42;;;;;;;6.70;1.50;;;;;;;;;;5044443;28;20515;-74
2023/01/16 12:36:10;;;;;;;4.05;1.15;;;;;;;;;;5048867;28;20552;-73
2023/01/16 12:38:42;;;;;;;4.22;0.88;;;;;;;;;;5049241;28;20543;-71
2023/01/16 12:44:38;;;;;;;4.00;1.10;;;;;;;;;;5048935;28;20090;-76
2023/01/16 12:47:06;;;;;;;3.78;0.90;;;;;;;;;;5049175;28;20033;-75
2023/01/16 12:49:44;;;;;;;3.22;0.75;;;;;;;;;;5031963;28;20036;-78
2023/01/16 12:52:18;;;;;;;3.13;0.82;;;;;;;;;;5050373;28;20486;-71
2023/01/16 12:55:04;;;;;;;4.13;0.98;;;;;;;;;;5049965;28;20496;-76
2023/01/16 12:57:38;;;;;;;2.78;0.80;;;;;;;;;;5055861;28;20037;-75
2023/01/16 13:00:28;;;;;;;3.50;1.10;;;;;;;;;;5050257;28;20032;-75
2023/01/16 13:03:14;;;;;;;2.30;0.60;;;;;;;;;;5065869;28;20047;-77
2023/01/16 13:05:43;;;;;;;3.53;0.73;;;;;;;;;;5070147;28;20038;-72
2023/01/16 13:08:44;;;;;;;4.25;1.00;;;;;;;;;;5070333;28;20097;-73
2023/01/16 13:14:06;;;;;;;4.38;1.15;;;;;;;;;;5056561;28;20071;-74
2023/01/16 13:16:45;;;;;;;3.90;0.85;;;;;;;;;;5041896;28;20575;-74
2023/01/16 13:19:26;;;;;;;2.97;0.80;;;;;;;;;;5064316;28;20056;-73
2023/01/16 13:21:56;;;;;;;3.60;0.88;;;;;;;;;;5046278;28;20101;-74
2023/01/16 13:24:29;;;;;;;2.55;0.65;;;;;;;;;;5064152;28;20096;-74
2023/01/16 13:27:01;;;;;;;2.92;0.82;;;;;;;;;;5079427;28;20044;-72
2023/01/16 13:29:41;;;;;;;3.33;1.00;;;;;;;;;;5078899;28;20028;-74
2023/01/16 13:32:19;;;;;;;5.90;1.42;;;;;;;;;;5083204;28;20020;-74
2023/01/16 13:34:51;;;;;;;4.75;1.50;;;;;;;;;;5078487;28;20043;-74
2023/01/16 13:37:52;;;;;;;4.32;1.00;;;;;;;;;;5078510;28;20020;-74
2023/01/16 13:40:36;;;;;;;;;;;;;;;;;;5075472;28;20029;-77
2023/01/16 13:45:54;;;;;;;5.15;1.10;;;;;;;;;;5073710;28;20694;-75
2023/01/16 13:48:26;;;;;;;2.85;0.93;;;;;;;;;;5076096;28;20055;-74
2023/01/16 13:51:01;;;;;;;6.28;1.35;;;;;;;;;;5073647;28;20449;-73
2023/01/16 13:53:29;;;;;;;4.38;1.10;;;;;;;;;;5074929;28;20055;-74
2023/01/16 13:56:05;;;;;;;6.55;1.27;;;;;;;;;;5075388;28;20036;-73
2023/01/16 13:58:30;;;;;;;4.07;0.90;;;;;;;;;;5077573;28;20025;-73
2023/01/16 14:01:02;;;;;;;4.38;1.02;;;;;;;;;;5073524;28;20063;-73
2023/01/16 14:03:30;;;;;;;7.28;1.17;;;;;;;;;;5073243;28;20470;-75
2023/01/16 14:06:10;;;;;;;6.32;1.13;;;;;;;;;;5079356;28;20029;-74
2023/01/16 14:09:14;;;;;;;5.95;1.35;;;;;;;;;;5066895;28;20028;-74
2023/01/16 14:12:01;;;;;;;6.47;1.15;;;;;;;;;;5084194;28;20051;-75
2023/01/16 14:17:14;;;;;;;5.68;1.08;;;;;;;;;;5084092;28;20051;-74
2023/01/16 14:19:59;;;;;;;9.70;1.90;;;;;;;;;;5081738;28;20464;-74
2023/01/16 14:25:06;;;;;;;5.85;1.40;;;;;;;;;;5084429;28;20023;-74
2023/01/16 14:27:38;;;;;;;8.17;1.20;;;;;;;;;;5084342;28;20239;-73
2023/01/16 14:30:13;;;;;;;7.72;1.13;;;;;;;;;;5082046;28;20051;-73
2023/01/16 14:32:50;;;;;;;6.25;1.50;;;;;;;;;;5075359;28;20028;-73
2023/01/16 14:35:19;;;;;;;7.65;1.42;;;;;;;;;;5081918;28;20048;-73
2023/01/16 14:38:08;;;;;;;7.40;1.33;;;;;;;;;;5080934;28;20070;-73
2023/01/16 14:55:48;;;;;;;6.43;1.33;;;;;;;;;;5078336;28;20565;-73
2023/01/16 14:58:22;;;;;;;5.45;1.40;;;;;;;;;;5066748;28;20060;-75
2023/01/16 15:00:51;;;;;;;6.13;1.30;;;;;;;;;;5049878;28;20036;-74
2023/01/16 15:03:28;;;;;;;6.20;1.23;;;;;;;;;;5067242;28;20025;-74
2023/01/16 15:06:03;;;;;;;10.38;1.17;;;;;;;;;;5070186;28;20048;-74
2023/01/16 15:08:32;;;;;;;6.63;1.48;;;;;;;;;;5081815;28;20039;-74
2023/01/16 15:11:30;;;;;;;6.90;2.00;;;;;;;;;;5070515;28;20033;-74
2023/01/16 15:22:36;;;;;;;5.53;1.40;;;;;;;;;;5069454;28;20035;-76
2023/01/16 15:25:14;;;;;;;4.80;1.30;;;;;;;;;;5069119;28;20025;-75
2023/01/16 15:27:41;;;;;;;6.38;1.80;;;;;;;;;;5064423;28;20024;-74
2023/01/16 15:30:20;;;;;;;4.68;1.58;;;;;;;;;;5071724;28;20025;-74
2023/01/16 15:35:55;;;;;;;4.18;1.25;;;;;;;;;;5049888;28;20600;-76
2023/01/16 15:38:20;;;;;;;6.85;1.75;;;;;;;;;;5053967;28;20111;-74
2023/01/16 15:40:51;;;;;;;2.50;1.00;;;;;;;;;;5070408;28;20107;-75
2023/01/16 15:46:33;;;;;;;3.83;1.50;;;;;;;;;;5067784;28;20629;-76
2023/01/16 15:49:10;;;;;;;6.82;2.55;;;;;;;;;;5049042;28;20074;-75
2023/01/16 15:51:36;;;;;;;7.50;2.65;;;;;;;;;;5070792;28;20396;-75
2023/01/16 15:54:02;;;;;;;7.22;2.47;;;;;;;;;;5071071;28;20040;-75
2023/01/16 15:56:35;;;;;;;6.15;2.65;;;;;;;;;;5071221;28;20035;-75
2023/01/16 15:59:00;;;;;;;4.30;2.00;;;;;;;;;;5053342;28;20107;-74
2023/01/16 16:01:29;;;;;;;5.20;1.92;;;;;;;;;;5070461;28;20136;-74
2023/01/16 16:03:56;;;;;;;5.60;2.25;;;;;;;;;;5071008;28;20488;-74
2023/01/16 16:06:22;;;;;;;7.03;2.90;;;;;;;;;;5052758;28;20032;-74
2023/01/16 16:08:51;;;;;;;10.02;3.30;;;;;;;;;;5070786;28;20028;-75
2023/01/16 16:20:34;;;;;;;5.15;1.90;;;;;;;;;;5065409;28;20031;-75
2023/01/16 16:23:11;;;;;;;6.18;1.90;;;;;;;;;;5070203;28;20042;-76
2023/01/16 16:25:54;;;;;;;4.18;1.63;;;;;;;;;;5070530;28;20104;-74
2023/01/16 16:28:25;;;;;;;6.43;1.50;;;;;;;;;;5070815;28;20024;-75
2023/01/16 16:31:24;;;;;;;5.55;1.40;;;;;;;;;;5070502;28;20060;-74
2023/01/16 16:33:58;;;;;;;5.20;1.38;;;;;;;;;;5070208;28;20051;-74
2023/01/16 16:36:23;;;;;;;6.85;1.60;;;;;;;;;;5070355;28;20032;-75
2023/01/16 16:38:52;;;;;;;5.97;1.25;;;;;;;;;;5070547;28;20025;-74
2023/01/16 16:45:06;;;;;;;4.88;1.60;;;;;;;;;;5070752;28;20073;-74
2023/01/16 16:47:37;;;;;;;5.07;1.70;;;;;;;;;;5055978;28;20040;-74
2023/01/16 16:50:35;;;;;;;5.82;1.25;;;;;;;;;;5050441;28;20479;-76
2023/01/16 16:53:05;;;;;;;3.58;1.17;;;;;;;;;;5069445;28;20409;-74
2023/01/16 16:55:35;;;;;;;6.90;1.60;;;;;;;;;;5070412;28;20500;-74
2023/01/16 16:58:04;;;;;;;5.97;1.60;;;;;;;;;;5045186;28;20369;-72
2023/01/16 17:00:33;;;;;;;5.32;1.70;;;;;;;;;;5069914;28;20048;-77
2023/01/16 17:03:05;;;;;;;6.03;1.63;;;;;;;;;;5075959;28;20044;-77
2023/01/16 17:05:31;;;;;;;;;;;;;;;;;;5077043;28;20343;-70